sensor_id;sensor_type;location;lat;lon;timestamp;temperature;humidity
13686;DHT22;6915;48.296;8.874;2022-12-07T00:02:27;2.00;99.90
13686;DHT22;6915;48.296;8.874;2022-12-07T00:05:00;2.20;99.90
13686;DHT22;6915;48.296;8.874;2022-12-07T00:07:28;2.00;99.90
13686;DHT22;6915;48.296;8.874;2022-12-07T00:09:57;2.00;99.90
13686;DHT22;6915;48.296;8.874;2022-12-07T00:12:25;2.00;99.90
13686;DHT22;6915;48.296;8.874;2022-12-07T00:14:54;2.00;99.90
13686;DHT22;6915;48.296;8.874;2022-12-07T00:17:24;2.00;99.90
13686;DHT22;6915;48.296;8.874;2022-12-07T00:19:53;2.00;99.90
13686;DHT22;6915;48.296;8.874;2022-12-07T00:22:21;1.90;99.90
13686;DHT22;6915;48.296;8.874;2022-12-07T00:24:50;1.90;99.90
13686;DHT22;6915;48.296;8.874;2022-12-07T00:27:19;1.90;99.90
13686;DHT22;6915;48.296;8.874;2022-12-07T00:49:56;2.00;99.90
13686;DHT22;6915;48.296;8.874;2022-12-07T00:52:26;2.00;99.90
13686;DHT22;6915;48.296;8.874;2022-12-07T00:54:55;1.90;99.90
13686;DHT22;6915;48.296;8.874;2022-12-07T00:57:25;1.90;99.90
13686;DHT22;6915;48.296;8.874;2022-12-07T00:59:54;1.90;99.90
13686;DHT22;6915;48.296;8.874;2022-12-07T01:02:26;1.90;99.90
13686;DHT22;6915;48.296;8.874;2022-12-07T01:04:57;1.90;99.90
13686;DHT22;6915;48.296;8.874;2022-12-07T01:07:25;1.90;99.90
13686;DHT22;6915;48.296;8.874;2022-12-07T01:09:54;2.10;99.90
13686;DHT22;6915;48.296;8.874;2022-12-07T01:12:22;1.90;99.90
13686;DHT22;6915;48.296;8.874;2022-12-07T01:14:51;1.90;99.90
13686;DHT22;6915;48.296;8.874;2022-12-07T01:17:20;1.90;99.90
13686;DHT22;6915;48.296;8.874;2022-12-07T01:19:48;1.90;99.90
13686;DHT22;6915;48.296;8.874;2022-12-07T01:22:18;2.00;99.90
13686;DHT22;6915;48.296;8.874;2022-12-07T01:24:49;2.00;99.90
13686;DHT22;6915;48.296;8.874;2022-12-07T01:27:18;2.00;99.90
13686;DHT22;6915;48.296;8.874;2022-12-07T01:29:46;2.10;99.90
13686;DHT22;6915;48.296;8.874;2022-12-07T01:32:15;2.20;99.90
13686;DHT22;6915;48.296;8.874;2022-12-07T01:34:43;2.00;99.90
13686;DHT22;6915;48.296;8.874;2022-12-07T01:37:12;2.00;99.90
13686;DHT22;6915;48.296;8.874;2022-12-07T01:39:42;1.90;99.90
13686;DHT22;6915;48.296;8.874;2022-12-07T01:42:11;2.00;99.90
13686;DHT22;6915;48.296;8.874;2022-12-07T01:45:31;1.90;99.90
13686;DHT22;6915;48.296;8.874;2022-12-07T01:48:02;2.00;99.90
13686;DHT22;6915;48.296;8.874;2022-12-07T01:50:32;1.90;99.90
13686;DHT22;6915;48.296;8.874;2022-12-07T01:53:04;1.90;99.90
13686;DHT22;6915;48.296;8.874;2022-12-07T01:55:37;2.10;99.90
13686;DHT22;6915;48.296;8.874;2022-12-07T01:58:07;2.00;99.90
13686;DHT22;6915;48.296;8.874;2022-12-07T02:00:36;2.00;99.90
13686;DHT22;6915;48.296;8.874;2022-12-07T02:03:08;2.00;99.90
13686;DHT22;6915;48.296;8.874;2022-12-07T02:05:40;2.00;99.90
13686;DHT22;6915;48.296;8.874;2022-12-07T02:08:10;2.00;99.90
13686;DHT22;6915;48.296;8.874;2022-12-07T02:10:40;2.00;99.90
13686;DHT22;6915;48.296;8.874;2022-12-07T02:13:13;2.00;99.90
13686;DHT22;6915;48.296;8.874;2022-12-07T02:15:59;2.00;99.90
13686;DHT22;6915;48.296;8.874;2022-12-07T02:18:41;2.00;99.90
13686;DHT22;6915;48.296;8.874;2022-12-07T02:21:15;2.00;99.90
13686;DHT22;6915;48.296;8.874;2022-12-07T02:27:07;2.00;99.90
13686;DHT22;6915;48.296;8.874;2022-12-07T02:29:40;1.90;99.90
13686;DHT22;6915;48.296;8.874;2022-12-07T02:32:15;1.90;99.90
13686;DHT22;6915;48.296;8.874;2022-12-07T02:34:49;2.00;99.90
13686;DHT22;6915;48.296;8.874;2022-12-07T02:37:26;2.00;99.90
13686;DHT22;6915;48.296;8.874;2022-12-07T02:40:00;2.20;99.90
13686;DHT22;6915;48.296;8.874;2022-12-07T02:42:33;2.20;99.90
13686;DHT22;6915;48.296;8.874;2022-12-07T02:45:07;2.20;99.90
13686;DHT22;6915;48.296;8.874;2022-12-07T02:47:39;2.20;99.90
13686;DHT22;6915;48.296;8.874;2022-12-07T02:50:10;2.10;99.90
13686;DHT22;6915;48.296;8.874;2022-12-07T02:52:39;2.10;99.90
13686;DHT22;6915;48.296;8.874;2022-12-07T02:55:09;2.10;99.90
13686;DHT22;6915;48.296;8.874;2022-12-07T02:57:49;1.90;99.90
13686;DHT22;6915;48.296;8.874;2022-12-07T03:00:22;1.90;99.90
13686;DHT22;6915;48.296;8.874;2022-12-07T03:02:58;1.90;99.90
13686;DHT22;6915;48.296;8.874;2022-12-07T03:05:42;1.80;99.90
13686;DHT22;6915;48.296;8.874;2022-12-07T03:08:18;1.80;99.90
13686;DHT22;6915;48.296;8.874;2022-12-07T03:10:54;1.80;99.90
13686;DHT22;6915;48.296;8.874;2022-12-07T03:13:28;1.90;99.90
13686;DHT22;6915;48.296;8.874;2022-12-07T03:16:05;1.70;99.90
13686;DHT22;6915;48.296;8.874;2022-12-07T03:18:40;1.80;99.90
13686;DHT22;6915;48.296;8.874;2022-12-07T03:21:16;1.80;99.90
13686;DHT22;6915;48.296;8.874;2022-12-07T03:23:48;1.80;99.90
13686;DHT22;6915;48.296;8.874;2022-12-07T03:26:18;1.80;99.90
13686;DHT22;6915;48.296;8.874;2022-12-07T03:28:50;1.80;99.90
13686;DHT22;6915;48.296;8.874;2022-12-07T03:31:25;1.80;99.90
13686;DHT22;6915;48.296;8.874;2022-12-07T03:33:58;1.70;99.90
13686;DHT22;6915;48.296;8.874;2022-12-07T03:36:32;1.80;99.90
13686;DHT22;6915;48.296;8.874;2022-12-07T03:39:08;1.80;99.90
13686;DHT22;6915;48.296;8.874;2022-12-07T03:41:39;1.80;99.90
13686;DHT22;6915;48.296;8.874;2022-12-07T03:44:08;1.80;99.90
13686;DHT22;6915;48.296;8.874;2022-12-07T03:46:45;1.80;99.90
13686;DHT22;6915;48.296;8.874;2022-12-07T03:49:21;1.80;99.90
13686;DHT22;6915;48.296;8.874;2022-12-07T03:51:56;1.80;99.90
13686;DHT22;6915;48.296;8.874;2022-12-07T03:54:33;1.80;99.90
13686;DHT22;6915;48.296;8.874;2022-12-07T03:57:03;1.80;99.90
13686;DHT22;6915;48.296;8.874;2022-12-07T03:59:36;1.90;99.90
13686;DHT22;6915;48.296;8.874;2022-12-07T04:02:10;2.00;99.90
13686;DHT22;6915;48.296;8.874;2022-12-07T04:04:41;1.90;99.90
13686;DHT22;6915;48.296;8.874;2022-12-07T04:07:11;1.80;99.90
13686;DHT22;6915;48.296;8.874;2022-12-07T04:09:40;1.70;99.90
13686;DHT22;6915;48.296;8.874;2022-12-07T04:12:14;1.60;99.90
13686;DHT22;6915;48.296;8.874;2022-12-07T04:14:47;1.60;99.90
13686;DHT22;6915;48.296;8.874;2022-12-07T04:20:17;1.60;99.90
13686;DHT22;6915;48.296;8.874;2022-12-07T04:22:46;1.60;99.90
13686;DHT22;6915;48.296;8.874;2022-12-07T04:25:18;1.60;99.90
13686;DHT22;6915;48.296;8.874;2022-12-07T06:24:22;0.50;99.90
13686;DHT22;6915;48.296;8.874;2022-12-07T06:26:52;0.40;99.90
13686;DHT22;6915;48.296;8.874;2022-12-07T06:29:21;0.30;99.90
13686;DHT22;6915;48.296;8.874;2022-12-07T06:31:50;0.30;99.90
13686;DHT22;6915;48.296;8.874;2022-12-07T06:34:21;0.20;99.90
13686;DHT22;6915;48.296;8.874;2022-12-07T06:39:30;0.10;99.90
13686;DHT22;6915;48.296;8.874;2022-12-07T06:41:59;0.00;99.90
13686;DHT22;6915;48.296;8.874;2022-12-07T06:44:28;-0.10;99.90
13686;DHT22;6915;48.296;8.874;2022-12-07T06:46:57;0.10;99.90
13686;DHT22;6915;48.296;8.874;2022-12-07T06:49:26;-0.20;99.90
13686;DHT22;6915;48.296;8.874;2022-12-07T06:51:54;-0.20;99.90
13686;DHT22;6915;48.296;8.874;2022-12-07T06:54:25;-0.20;99.90
13686;DHT22;6915;48.296;8.874;2022-12-07T06:56:55;-0.30;99.90
13686;DHT22;6915;48.296;8.874;2022-12-07T06:59:24;-0.30;99.90
13686;DHT22;6915;48.296;8.874;2022-12-07T07:01:52;-0.30;99.90
13686;DHT22;6915;48.296;8.874;2022-12-07T07:04:21;-0.20;99.90
13686;DHT22;6915;48.296;8.874;2022-12-07T07:06:51;-0.50;99.90
13686;DHT22;6915;48.296;8.874;2022-12-07T07:09:19;-0.60;99.90
13686;DHT22;6915;48.296;8.874;2022-12-07T07:11:48;-0.60;99.90
13686;DHT22;6915;48.296;8.874;2022-12-07T07:14:18;-0.60;99.90
13686;DHT22;6915;48.296;8.874;2022-12-07T07:16:48;-0.60;99.90
13686;DHT22;6915;48.296;8.874;2022-12-07T07:19:17;-0.60;99.90
13686;DHT22;6915;48.296;8.874;2022-12-07T07:21:45;-0.50;99.90
13686;DHT22;6915;48.296;8.874;2022-12-07T07:24:14;-0.50;99.90
13686;DHT22;6915;48.296;8.874;2022-12-07T07:26:43;-0.50;99.90
13686;DHT22;6915;48.296;8.874;2022-12-07T07:29:11;-0.60;99.90
13686;DHT22;6915;48.296;8.874;2022-12-07T07:31:41;-0.60;99.90
13686;DHT22;6915;48.296;8.874;2022-12-07T07:34:10;-0.70;99.90
13686;DHT22;6915;48.296;8.874;2022-12-07T07:36:39;-0.60;99.90
13686;DHT22;6915;48.296;8.874;2022-12-07T07:39:07;-0.50;99.90
13686;DHT22;6915;48.296;8.874;2022-12-07T07:41:40;-0.50;99.90
13686;DHT22;6915;48.296;8.874;2022-12-07T07:44:08;-0.40;99.90
13686;DHT22;6915;48.296;8.874;2022-12-07T07:46:37;-0.30;99.90
13686;DHT22;6915;48.296;8.874;2022-12-07T07:49:08;-0.30;99.90
13686;DHT22;6915;48.296;8.874;2022-12-07T07:51:37;-0.20;99.90
13686;DHT22;6915;48.296;8.874;2022-12-07T07:54:06;-0.20;99.90
13686;DHT22;6915;48.296;8.874;2022-12-07T07:56:35;-0.10;99.90
13686;DHT22;6915;48.296;8.874;2022-12-07T07:59:04;0.00;99.90
13686;DHT22;6915;48.296;8.874;2022-12-07T08:01:32;0.10;99.90
13686;DHT22;6915;48.296;8.874;2022-12-07T08:04:01;0.20;99.90
13686;DHT22;6915;48.296;8.874;2022-12-07T08:06:31;0.20;99.90
13686;DHT22;6915;48.296;8.874;2022-12-07T08:09:00;0.30;99.90
13686;DHT22;6915;48.296;8.874;2022-12-07T08:11:28;0.30;99.90
13686;DHT22;6915;48.296;8.874;2022-12-07T08:13:57;0.30;99.90
13686;DHT22;6915;48.296;8.874;2022-12-07T08:16:25;0.40;99.90
13686;DHT22;6915;48.296;8.874;2022-12-07T08:18:54;0.50;99.90
13686;DHT22;6915;48.296;8.874;2022-12-07T08:21:23;0.50;99.90
13686;DHT22;6915;48.296;8.874;2022-12-07T08:23:52;0.50;99.90
13686;DHT22;6915;48.296;8.874;2022-12-07T08:36:26;0.70;99.90
13686;DHT22;6915;48.296;8.874;2022-12-07T08:38:56;0.90;99.90
13686;DHT22;6915;48.296;8.874;2022-12-07T08:41:25;1.00;99.90
13686;DHT22;6915;48.296;8.874;2022-12-07T08:43:54;1.00;99.90
13686;DHT22;6915;48.296;8.874;2022-12-07T08:46:28;1.10;99.90
13686;DHT22;6915;48.296;8.874;2022-12-07T08:49:04;1.10;99.90
13686;DHT22;6915;48.296;8.874;2022-12-07T08:51:34;1.30;99.90
13686;DHT22;6915;48.296;8.874;2022-12-07T08:54:06;1.30;99.90
13686;DHT22;6915;48.296;8.874;2022-12-07T08:56:36;1.40;99.90
13686;DHT22;6915;48.296;8.874;2022-12-07T08:59:06;1.50;99.90
13686;DHT22;6915;48.296;8.874;2022-12-07T09:01:35;1.70;99.90
13686;DHT22;6915;48.296;8.874;2022-12-07T09:04:04;1.60;99.90
13686;DHT22;6915;48.296;8.874;2022-12-07T09:06:32;1.70;99.90
13686;DHT22;6915;48.296;8.874;2022-12-07T09:09:02;1.80;99.90
13686;DHT22;6915;48.296;8.874;2022-12-07T09:11:32;1.90;99.90
13686;DHT22;6915;48.296;8.874;2022-12-07T09:14:01;1.90;99.90
13686;DHT22;6915;48.296;8.874;2022-12-07T09:16:30;2.00;99.90
13686;DHT22;6915;48.296;8.874;2022-12-07T09:18:59;2.10;99.90
13686;DHT22;6915;48.296;8.874;2022-12-07T09:21:27;2.20;99.90
13686;DHT22;6915;48.296;8.874;2022-12-07T09:23:56;2.20;99.90
13686;DHT22;6915;48.296;8.874;2022-12-07T09:26:25;2.30;99.90
13686;DHT22;6915;48.296;8.874;2022-12-07T09:28:55;2.50;99.90
13686;DHT22;6915;48.296;8.874;2022-12-07T09:31:25;2.60;99.90
13686;DHT22;6915;48.296;8.874;2022-12-07T09:33:58;2.60;99.90
13686;DHT22;6915;48.296;8.874;2022-12-07T09:36:28;2.80;99.90
13686;DHT22;6915;48.296;8.874;2022-12-07T09:38:58;2.80;99.90
13686;DHT22;6915;48.296;8.874;2022-12-07T09:41:29;2.80;99.90
13686;DHT22;6915;48.296;8.874;2022-12-07T09:44:03;3.00;99.90
13686;DHT22;6915;48.296;8.874;2022-12-07T09:46:34;3.00;99.90
13686;DHT22;6915;48.296;8.874;2022-12-07T09:49:04;3.00;99.90
13686;DHT22;6915;48.296;8.874;2022-12-07T09:51:34;3.00;99.90
13686;DHT22;6915;48.296;8.874;2022-12-07T09:54:03;3.10;99.90
13686;DHT22;6915;48.296;8.874;2022-12-07T09:56:35;3.10;99.90
13686;DHT22;6915;48.296;8.874;2022-12-07T09:59:05;3.30;99.90
13686;DHT22;6915;48.296;8.874;2022-12-07T10:01:37;3.30;99.90
13686;DHT22;6915;48.296;8.874;2022-12-07T10:04:12;3.40;99.90
13686;DHT22;6915;48.296;8.874;2022-12-07T10:06:42;3.60;99.90
13686;DHT22;6915;48.296;8.874;2022-12-07T10:09:12;3.60;99.90
13686;DHT22;6915;48.296;8.874;2022-12-07T10:12:03;3.50;99.90
13686;DHT22;6915;48.296;8.874;2022-12-07T10:14:36;3.70;99.90
13686;DHT22;6915;48.296;8.874;2022-12-07T10:17:32;3.90;99.90
13686;DHT22;6915;48.296;8.874;2022-12-07T10:20:23;4.10;99.90
13686;DHT22;6915;48.296;8.874;2022-12-07T10:23:01;4.20;99.90
13686;DHT22;6915;48.296;8.874;2022-12-07T10:25:32;4.50;99.90
13686;DHT22;6915;48.296;8.874;2022-12-07T10:28:03;4.40;99.90
13686;DHT22;6915;48.296;8.874;2022-12-07T10:30:48;4.40;99.90
13686;DHT22;6915;48.296;8.874;2022-12-07T10:33:34;4.50;99.90
13686;DHT22;6915;48.296;8.874;2022-12-07T10:36:16;4.40;99.90
13686;DHT22;6915;48.296;8.874;2022-12-07T10:38:46;4.40;99.90
13686;DHT22;6915;48.296;8.874;2022-12-07T10:41:15;4.40;99.90
13686;DHT22;6915;48.296;8.874;2022-12-07T10:43:50;4.40;99.90
13686;DHT22;6915;48.296;8.874;2022-12-07T10:51:34;4.50;99.90
13686;DHT22;6915;48.296;8.874;2022-12-07T10:54:10;4.40;99.90
13686;DHT22;6915;48.296;8.874;2022-12-07T11:01:57;4.60;99.90
13686;DHT22;6915;48.296;8.874;2022-12-07T11:04:35;4.70;99.90
13686;DHT22;6915;48.296;8.874;2022-12-07T11:07:13;4.80;99.90
13686;DHT22;6915;48.296;8.874;2022-12-07T11:09:52;4.90;99.90
13686;DHT22;6915;48.296;8.874;2022-12-07T11:30:37;5.30;99.90
13686;DHT22;6915;48.296;8.874;2022-12-07T11:33:15;5.20;99.90
13686;DHT22;6915;48.296;8.874;2022-12-07T11:43:31;5.50;99.90
13686;DHT22;6915;48.296;8.874;2022-12-07T11:46:06;5.70;99.90
13686;DHT22;6915;48.296;8.874;2022-12-07T11:48:40;5.80;99.90
13686;DHT22;6915;48.296;8.874;2022-12-07T11:51:13;5.80;99.90
13686;DHT22;6915;48.296;8.874;2022-12-07T11:53:49;6.00;99.90
13686;DHT22;6915;48.296;8.874;2022-12-07T11:56:22;5.90;99.90
13686;DHT22;6915;48.296;8.874;2022-12-07T11:58:57;6.10;99.90
13686;DHT22;6915;48.296;8.874;2022-12-07T12:01:33;6.10;99.90
13686;DHT22;6915;48.296;8.874;2022-12-07T12:04:13;6.20;99.90
13686;DHT22;6915;48.296;8.874;2022-12-07T12:06:44;6.20;99.90
13686;DHT22;6915;48.296;8.874;2022-12-07T12:09:16;6.30;99.90
13686;DHT22;6915;48.296;8.874;2022-12-07T12:15:16;6.30;99.90
13686;DHT22;6915;48.296;8.874;2022-12-07T12:18:00;5.90;99.90
13686;DHT22;6915;48.296;8.874;2022-12-07T12:20:35;5.70;99.90
13686;DHT22;6915;48.296;8.874;2022-12-07T12:23:09;5.60;99.90
13686;DHT22;6915;48.296;8.874;2022-12-07T12:25:42;5.50;99.90
13686;DHT22;6915;48.296;8.874;2022-12-07T12:28:27;5.30;99.90
13686;DHT22;6915;48.296;8.874;2022-12-07T12:31:09;5.20;99.90
13686;DHT22;6915;48.296;8.874;2022-12-07T12:33:47;5.30;99.90
13686;DHT22;6915;48.296;8.874;2022-12-07T12:36:22;5.40;99.90
13686;DHT22;6915;48.296;8.874;2022-12-07T12:38:51;5.40;99.90
13686;DHT22;6915;48.296;8.874;2022-12-07T12:44:41;5.40;99.90
13686;DHT22;6915;48.296;8.874;2022-12-07T12:50:17;5.50;99.90
13686;DHT22;6915;48.296;8.874;2022-12-07T12:52:57;5.20;99.90
13686;DHT22;6915;48.296;8.874;2022-12-07T12:58:40;5.10;99.90
13686;DHT22;6915;48.296;8.874;2022-12-07T13:01:43;5.10;99.90
13686;DHT22;6915;48.296;8.874;2022-12-07T13:07:54;5.10;99.90
13686;DHT22;6915;48.296;8.874;2022-12-07T13:10:40;5.10;99.90
13686;DHT22;6915;48.296;8.874;2022-12-07T13:13:31;5.10;99.90
13686;DHT22;6915;48.296;8.874;2022-12-07T13:22:53;4.90;99.90
13686;DHT22;6915;48.296;8.874;2022-12-07T13:25:31;4.80;99.90
13686;DHT22;6915;48.296;8.874;2022-12-07T13:28:07;4.90;99.90
13686;DHT22;6915;48.296;8.874;2022-12-07T13:30:44;4.80;99.90
13686;DHT22;6915;48.296;8.874;2022-12-07T13:33:14;4.90;99.90
13686;DHT22;6915;48.296;8.874;2022-12-07T13:35:45;4.90;99.90
13686;DHT22;6915;48.296;8.874;2022-12-07T15:37:30;3.10;99.90
13686;DHT22;6915;48.296;8.874;2022-12-07T15:40:01;3.10;99.90
13686;DHT22;6915;48.296;8.874;2022-12-07T15:42:29;3.10;99.90
13686;DHT22;6915;48.296;8.874;2022-12-07T15:44:58;3.00;99.90
13686;DHT22;6915;48.296;8.874;2022-12-07T15:47:36;3.00;99.90
13686;DHT22;6915;48.296;8.874;2022-12-07T15:50:06;3.00;99.90
13686;DHT22;6915;48.296;8.874;2022-12-07T15:52:38;3.00;99.90
13686;DHT22;6915;48.296;8.874;2022-12-07T15:55:08;3.00;99.90
13686;DHT22;6915;48.296;8.874;2022-12-07T15:57:38;3.00;99.90
13686;DHT22;6915;48.296;8.874;2022-12-07T16:00:07;3.00;99.90
13686;DHT22;6915;48.296;8.874;2022-12-07T16:02:38;3.10;99.90
13686;DHT22;6915;48.296;8.874;2022-12-07T16:05:07;3.00;99.90
13686;DHT22;6915;48.296;8.874;2022-12-07T16:07:37;3.00;99.90
13686;DHT22;6915;48.296;8.874;2022-12-07T16:10:06;3.00;99.90
13686;DHT22;6915;48.296;8.874;2022-12-07T16:12:35;3.00;99.90
13686;DHT22;6915;48.296;8.874;2022-12-07T16:15:05;2.90;99.90
13686;DHT22;6915;48.296;8.874;2022-12-07T16:17:36;2.90;99.90
13686;DHT22;6915;48.296;8.874;2022-12-07T16:20:04;2.80;99.90
13686;DHT22;6915;48.296;8.874;2022-12-07T16:22:33;2.90;99.90
13686;DHT22;6915;48.296;8.874;2022-12-07T16:25:04;2.90;99.90
13686;DHT22;6915;48.296;8.874;2022-12-07T16:27:33;2.80;99.90
13686;DHT22;6915;48.296;8.874;2022-12-07T16:30:02;2.80;99.90
13686;DHT22;6915;48.296;8.874;2022-12-07T16:32:32;2.90;99.90
13686;DHT22;6915;48.296;8.874;2022-12-07T16:35:01;2.90;99.90
13686;DHT22;6915;48.296;8.874;2022-12-07T16:37:30;2.80;99.90
13686;DHT22;6915;48.296;8.874;2022-12-07T16:39:59;2.70;99.90
13686;DHT22;6915;48.296;8.874;2022-12-07T16:42:33;2.70;99.90
13686;DHT22;6915;48.296;8.874;2022-12-07T16:45:02;2.70;99.90
13686;DHT22;6915;48.296;8.874;2022-12-07T16:47:33;2.90;99.90
13686;DHT22;6915;48.296;8.874;2022-12-07T16:50:07;2.80;99.90
13686;DHT22;6915;48.296;8.874;2022-12-07T16:52:36;2.90;99.90
13686;DHT22;6915;48.296;8.874;2022-12-07T16:55:05;2.90;99.90
13686;DHT22;6915;48.296;8.874;2022-12-07T16:57:36;3.00;99.90
13686;DHT22;6915;48.296;8.874;2022-12-07T17:00:08;2.90;99.90
13686;DHT22;6915;48.296;8.874;2022-12-07T17:02:37;2.80;99.90
13686;DHT22;6915;48.296;8.874;2022-12-07T17:05:06;2.80;99.90
13686;DHT22;6915;48.296;8.874;2022-12-07T17:07:36;2.80;99.90
13686;DHT22;6915;48.296;8.874;2022-12-07T17:10:05;2.80;99.90
13686;DHT22;6915;48.296;8.874;2022-12-07T17:38:30;2.20;99.90
13686;DHT22;6915;48.296;8.874;2022-12-07T17:40:59;2.20;99.90
13686;DHT22;6915;48.296;8.874;2022-12-07T21:27:12;1.00;99.90
13686;DHT22;6915;48.296;8.874;2022-12-07T21:29:41;1.00;99.90
13686;DHT22;6915;48.296;8.874;2022-12-07T21:32:10;0.80;99.90
13686;DHT22;6915;48.296;8.874;2022-12-07T21:34:39;0.90;99.90
13686;DHT22;6915;48.296;8.874;2022-12-07T21:37:08;0.90;99.90
13686;DHT22;6915;48.296;8.874;2022-12-07T21:39:38;0.80;99.90
13686;DHT22;6915;48.296;8.874;2022-12-07T21:42:07;0.80;99.90
13686;DHT22;6915;48.296;8.874;2022-12-07T21:44:37;0.90;99.90
13686;DHT22;6915;48.296;8.874;2022-12-07T21:47:06;0.80;99.90
13686;DHT22;6915;48.296;8.874;2022-12-07T21:49:37;0.80;99.90
13686;DHT22;6915;48.296;8.874;2022-12-07T21:52:06;0.80;99.90
13686;DHT22;6915;48.296;8.874;2022-12-07T21:54:35;0.80;99.90
13686;DHT22;6915;48.296;8.874;2022-12-07T21:57:04;0.80;99.90
13686;DHT22;6915;48.296;8.874;2022-12-07T21:59:33;0.80;99.90
13686;DHT22;6915;48.296;8.874;2022-12-07T22:02:05;0.70;99.90
13686;DHT22;6915;48.296;8.874;2022-12-07T22:04:36;0.80;99.90
13686;DHT22;6915;48.296;8.874;2022-12-07T22:07:05;0.70;99.90
13686;DHT22;6915;48.296;8.874;2022-12-07T22:09:35;0.70;99.90
13686;DHT22;6915;48.296;8.874;2022-12-07T22:12:03;0.70;99.90
13686;DHT22;6915;48.296;8.874;2022-12-07T22:14:33;0.70;99.90
13686;DHT22;6915;48.296;8.874;2022-12-07T22:17:20;0.60;99.90
13686;DHT22;6915;48.296;8.874;2022-12-07T22:19:54;0.60;99.90
13686;DHT22;6915;48.296;8.874;2022-12-07T22:22:23;0.60;99.90
13686;DHT22;6915;48.296;8.874;2022-12-07T22:24:52;0.50;99.90
13686;DHT22;6915;48.296;8.874;2022-12-07T22:27:23;0.60;99.90
13686;DHT22;6915;48.296;8.874;2022-12-07T22:29:52;0.60;99.90
13686;DHT22;6915;48.296;8.874;2022-12-07T22:32:22;0.50;99.90
13686;DHT22;6915;48.296;8.874;2022-12-07T22:34:51;0.40;99.90
13686;DHT22;6915;48.296;8.874;2022-12-07T22:37:20;0.40;99.90
13686;DHT22;6915;48.296;8.874;2022-12-07T22:39:55;0.40;99.90
13686;DHT22;6915;48.296;8.874;2022-12-07T22:42:24;0.40;99.90
13686;DHT22;6915;48.296;8.874;2022-12-07T22:44:53;0.40;99.90
13686;DHT22;6915;48.296;8.874;2022-12-07T22:47:23;0.40;99.90
13686;DHT22;6915;48.296;8.874;2022-12-07T22:49:52;0.30;99.90
13686;DHT22;6915;48.296;8.874;2022-12-07T22:52:21;0.30;99.90
13686;DHT22;6915;48.296;8.874;2022-12-07T22:54:50;0.20;99.90
13686;DHT22;6915;48.296;8.874;2022-12-07T22:57:18;0.20;99.90
13686;DHT22;6915;48.296;8.874;2022-12-07T22:59:47;0.30;99.90
13686;DHT22;6915;48.296;8.874;2022-12-07T23:02:19;0.30;99.90
13686;DHT22;6915;48.296;8.874;2022-12-07T23:04:49;0.30;99.90
13686;DHT22;6915;48.296;8.874;2022-12-07T23:07:18;0.30;99.90
13686;DHT22;6915;48.296;8.874;2022-12-07T23:09:46;0.30;99.90
13686;DHT22;6915;48.296;8.874;2022-12-07T23:12:15;0.30;99.90
13686;DHT22;6915;48.296;8.874;2022-12-07T23:15:02;0.20;99.90
13686;DHT22;6915;48.296;8.874;2022-12-07T23:17:33;0.30;99.90
13686;DHT22;6915;48.296;8.874;2022-12-07T23:20:04;0.40;99.90
13686;DHT22;6915;48.296;8.874;2022-12-07T23:22:33;0.20;99.90
13686;DHT22;6915;48.296;8.874;2022-12-07T23:25:05;0.30;99.90
13686;DHT22;6915;48.296;8.874;2022-12-07T23:27:34;0.20;99.90
13686;DHT22;6915;48.296;8.874;2022-12-07T23:30:03;0.20;99.90
13686;DHT22;6915;48.296;8.874;2022-12-07T23:32:32;0.20;99.90
13686;DHT22;6915;48.296;8.874;2022-12-07T23:35:01;0.30;99.90
13686;DHT22;6915;48.296;8.874;2022-12-07T23:37:31;0.30;99.90
13686;DHT22;6915;48.296;8.874;2022-12-07T23:39:59;0.30;99.90
13686;DHT22;6915;48.296;8.874;2022-12-07T23:42:28;0.20;99.90
13686;DHT22;6915;48.296;8.874;2022-12-07T23:44:57;0.30;99.90
13686;DHT22;6915;48.296;8.874;2022-12-07T23:47:27;0.30;99.90
13686;DHT22;6915;48.296;8.874;2022-12-07T23:49:56;0.30;99.90
13686;DHT22;6915;48.296;8.874;2022-12-07T23:52:24;0.30;99.90
13686;DHT22;6915;48.296;8.874;2022-12-07T23:54:55;0.10;99.90
13686;DHT22;6915;48.296;8.874;2022-12-07T23:57:23;0.20;99.90
13686;DHT22;6915;48.296;8.874;2022-12-07T23:59:52;0.20;99.90
